Decoded Metar for KLPC (LOMPOC in CA, USA) (IATA:LPC) | Meteo·Mobile Aviation Weather
aviador You're here:

KLPC Decoded Metar

LOMPOC in CA, USA
Report Time2019-10-21 06:56:00
UTC Time2019-10-21 07:09:13
Flight Rules vfr VFR
Wind330° at 05 kt
W.Decomp.*RWY 25: 2.1 kt HW 4.5 kt RCW
Visibility9999 m
Phenomena:N/A
Clouds:N/A
Expected CloudBase > 6,400 ft AGL from Temp-Dew spread
CeilingNone
Temp20°C (ISA +5)
Dew Point04°C (35% RH)
AAT16.9°C
QNH1017 hPa
Density Alt673 ft
Elevation89 ft
Report Wrong Elevation
Raw Report
KLPC 210656Z AUTO 33005KT 10SM CLR 20/04 A3003 RMK AO2 SLP168
T02000044=

Extra information for KLPC:More info

Metar Taf Metar & Taf Last 4 Metars F.Rules Stats Wind Profile Meteogram Temp Stats Airport Information Weather charts Add Link Nearby VenuesMetar ALERT Operation Metar Decoded Social comments

AIRNAV info for KLPC